CheckWX is a tool to help pilots better visualize weather data.  It is not intended as a substitute for an official pre-flight weather briefing.

19:36:07 UTC

KYNG TAF
Youngstown-Warren Regional Airport
Youngstown/Warren, Ohio, USA
KYNG 191747Z 1918/2018 00000KT P6SM VCSH BKN035 FM200400 08004KT P6SM OVC035 FM200800 VRB03KT 4SM SHRA OVC025 TEMPO 2009/2013 2SM TSRA OVC015CB FM201300 15004KT 5SM TSRA BR OVC008CB FM201600 24009KT 5SM -SHRA BR OVC010

Jun-19@
18:00 UTC

Jun-19 @ 18:00 UTC

Jun-20@
04:00 UTC

Jun-20 @ 04:00 UTC

KYNG 191747Z 1918/2018 00000KT P6SM VCSH BKN035
Cloud Levels
  • Broken at 3,500' AGL

Jun-20@
04:00 UTC

Jun-20 @ 04:00 UTC

Jun-20@
08:00 UTC

Jun-20 @ 08:00 UTC

FM200400 08004KT P6SM OVC035

From

From Standard forecast or significant change

Wind
  • 080° at 4 KTS
Cloud Levels
  • Overcast at 3,500' AGL

Jun-20@
08:00 UTC

Jun-20 @ 08:00 UTC

Jun-20@
13:00 UTC

Jun-20 @ 13:00 UTC

FM200800 VRB03KT 4SM SHRA OVC025

From

From Standard forecast or significant change

Wind
  • Variable at 3 KTS
Conditions
Rain
Cloud Levels
  • Overcast at 2,500' AGL

Jun-20@
09:00 UTC

Jun-20 @ 09:00 UTC

Jun-20@
13:00 UTC

Jun-20 @ 13:00 UTC

TEMPO 2009/2013 2SM TSRA OVC015CB

Temporary

Temporary Changes expected for less than half the time period

Conditions
Thunderstorm, Rain
Cloud Levels
  • Overcast at 1,500' AGL

Jun-20@
13:00 UTC

Jun-20 @ 13:00 UTC

Jun-20@
16:00 UTC

Jun-20 @ 16:00 UTC

FM201300 15004KT 5SM TSRA BR OVC008CB

From

From Standard forecast or significant change

Wind
  • 150° at 4 KTS
Conditions
Thunderstorm, Rain, Mist
Cloud Levels
  • Overcast at 800' AGL

Jun-20@
16:00 UTC

Jun-20 @ 16:00 UTC

Jun-20@
18:00 UTC

Jun-20 @ 18:00 UTC

FM201600 24009KT 5SM -SHRA BR OVC010

From

From Standard forecast or significant change

Wind
  • 240° at 9 KTS
Conditions
Light Rain, Mist
Cloud Levels
  • Overcast at 1,000' AGL